METAR Data
IDs: Format: Raw Decoded Include TAF

Data at: 0514 UTC 24 Sep 2018

KATP 240455Z AUTO 13011KT 10SM 28/23 A2996 RMK A01
KATP 240435Z AUTO 13011KT 10SM 28/23 A2995 RMK A01
KATP 240415Z AUTO 13012KT 10SM 29/24 A2996 RMK A01
KATP 240355Z AUTO 13012KT 10SM 29/23 A2996 RMK A01
KATP 240335Z AUTO 13010KT 10SM 29/23 A2996 RMK A01
KATP 240315Z AUTO 13011KT 10SM 29/23 A2996 RMK A01
KATP 240255Z AUTO 13010KT 10SM 29/23 A2995 RMK A01
KATP 240235Z AUTO 13010KT 10SM 29/23 A2995 RMK A01
KATP 240210Z AUTO 13009KT 10SM 29/22 A2994 RMK A01
KATP 240155Z AUTO 13010KT 10SM 29/23 A2994 RMK A01
KATP 240135Z AUTO 13011KT 10SM 29/23 A2993 RMK A01
KATP 240115Z AUTO 13012KT 10SM 28/23 A2992 RMK A01
KATP 240050Z AUTO 14009KT 10SM 28/23 A2992 RMK A01
KATP 240035Z AUTO 13010KT 10SM 28/23 A2992 RMK A01
KATP 240015Z AUTO 13010KT 10SM 28/23 A2991 RMK A01
KATP 232355Z AUTO 12010KT 10SM 28/22 A2991 RMK A01
KATP 232335Z AUTO 13011KT 10SM 28/22 A2991 RMK A01
KATP 232315Z AUTO 12012KT 10SM 28/22 A2991 RMK A01
KATP 232255Z AUTO 12011KT 10SM 28/22 A2991 RMK A01
KATP 232235Z AUTO 12012KT 10SM 27/22 A2991 RMK A01
KATP 232215Z AUTO 12015KT 10SM 28/23 A2991 RMK A01
KATP 232155Z AUTO 12004KT 10SM 29/22 A2991 RMK A01
KATP 232135Z AUTO 13006KT 10SM 29/23 A2991 RMK A01
KATP 232115Z AUTO 15005KT 10SM 30/23 A2991 RMK A01
KATP 232055Z AUTO 14005KT 10SM 30/22 A2991 RMK A01
KATP 232035Z AUTO 15005KT 10SM 30/22 A2992 RMK A01
KATP 232015Z AUTO 17006KT 10SM 30/23 A2992 RMK A01
KATP 231955Z AUTO 15005KT 10SM 29/22 A2993 RMK A01
KATP 231935Z AUTO VRB04KT 10SM 30/22 A2994 RMK A01
KATP 231910Z AUTO VRB03KT 10SM 30/23 A2995 RMK A01
KATP 231855Z AUTO 00000KT 10SM 30/23 A2995 RMK A01
KATP 231835Z AUTO VRB06KT 10SM 30/22 A2996 RMK A01
KATP 231815Z AUTO 00000KT 10SM 30/23 A2997 RMK A01
KATP 231755Z AUTO 00000KT 10SM 30/23 A2998 RMK A01
KATP 231735Z AUTO 00000KT 10SM 30/23 A2998 RMK A01
KATP 231715Z AUTO 00000KT 10SM 30/23 A2999 RMK A01
KATP 231655Z AUTO 00000KT 10SM 30/22 A2999 RMK A01
KATP 231635Z AUTO VRB05KT 10SM 29/23 A2999 RMK A01
KATP 231615Z AUTO 16005KT 10SM 29/23 A2999 RMK A01
KATP 231555Z AUTO 17007KT 10SM 29/23 A2999 RMK A01
KATP 231535Z AUTO 16005KT 10SM 29/23 A2999 RMK A01
KATP 231515Z AUTO VRB05KT 10SM 29/23 A2999 RMK A01
KATP 231455Z AUTO 13006KT 9SM 28/23 A2999 RMK A01
KATP 231435Z AUTO 14011KT 10SM 28/23 A2999 RMK A01
KATP 231415Z AUTO 18008KT 10SM 29/23 A2998 RMK A01
KATP 231355Z AUTO VRB03KT 10SM 29/23 A2997 RMK A01
KATP 231335Z AUTO 17006KT 10SM 29/23 A2997 RMK A01
KATP 231315Z AUTO 16005KT 10SM 29/23 A2996 RMK A01
KATP 231255Z AUTO 18007KT 10SM 29/22 A2996 RMK A01
KATP 231235Z AUTO 18007KT 160V220 10SM 29/22 A2995 RMK A01
KATP 231215Z AUTO 18009KT 10SM 28/22 A2995 RMK A01
KATP 231155Z AUTO VRB06G12KT 10SM 28/22 A2994 RMK A01
KATP 231135Z AUTO 16007KT 10SM 28/22 A2994 RMK A01
KATP 231115Z AUTO 15008KT 10SM 28/22 A2993 RMK A01
KATP 231055Z AUTO 17011KT 10SM 28/22 A2992 RMK A01
KATP 231035Z AUTO 17010KT 10SM 28/22 A2992 RMK A01
KATP 231015Z AUTO 18010KT 10SM 28/22 A2992 RMK A01
KATP 230955Z AUTO 15009KT 10SM 28/22 A2992 RMK A01
KATP 230935Z AUTO 16009KT 130V190 10SM 28/22 A2992 RMK A01
KATP 230915Z AUTO 16010KT 10SM 28/22 A2992 RMK A01
KATP 230855Z AUTO 15009KT 10SM 28/23 A2992 RMK A01
KATP 230835Z AUTO 16010KT 10SM 28/22 A2993 RMK A01
KATP 230815Z AUTO 16009KT 10SM 28/22 A2993 RMK A01
KATP 230755Z AUTO 15010KT 10SM 28/22 A2993 RMK A01
KATP 230735Z AUTO 15009G14KT 10SM 29/22 A2994 RMK A01
KATP 230715Z AUTO 15009G15KT 10SM 29/22 A2994 RMK A01
KATP 230655Z AUTO 14012KT 10SM 28/22 A2995 RMK A01
KATP 230635Z AUTO 13013KT 10SM 28/23 A2995 RMK A01
KATP 230615Z AUTO 14010KT 10SM 29/22 A2995 RMK A01
KATP 230555Z AUTO 14013KT 10SM 29/22 A2996 RMK A01
KATP 230535Z AUTO 13012KT 10SM 29/23 A2996 RMK A01
KATP 230515Z AUTO 13013KT 10SM 29/23 A2996 RMK A01
KATP 230455Z AUTO 13014KT 10SM 29/23 A2996 RMK A01
KATP 230435Z AUTO 13014KT 10SM 29/23 A2997 RMK A01
KATP 230415Z AUTO 14013KT 10SM 28/24 A2998 RMK A01
KATP 230355Z AUTO 13014KT 10SM 28/23 A2998 RMK A01
KATP 230335Z AUTO 13015KT 10SM 28/23 A2998 RMK A01
KATP 230315Z AUTO 12011KT 10SM 29/24 A2999 RMK A01
KATP 230255Z AUTO 12007KT 10SM 29/23 A2999 RMK A01
KATP 230235Z AUTO 13009KT 10SM 29/23 A2999 RMK A01
KATP 230215Z AUTO 12008KT 10SM 29/23 A2998 RMK A01
KATP 230155Z AUTO 12009KT 10SM 29/24 A2998 RMK A01
KATP 230135Z AUTO 12010KT 10SM 29/24 A2997 RMK A01
KATP 230115Z AUTO 12009KT 10SM 29/23 A2996 RMK A01
KATP 230055Z AUTO 12008KT 10SM 29/23 A2996 RMK A01
KATP 230035Z AUTO 12008KT 10SM 29/23 A2995 RMK A01
KATP 230015Z AUTO 11005KT 10SM 29/23 A2995 RMK A01
KATP 222355Z AUTO 11006KT 10SM 29/23 A2994 RMK A01
KATP 222335Z AUTO 10007KT 10SM 29/23 A2994 RMK A01
KATP 222315Z AUTO 11009KT 10SM 29/24 A2994 RMK A01
KATP 222255Z AUTO 11005KT 10SM 29/24 A2994 RMK A01
KATP 222235Z AUTO 11003KT 10SM 29/24 A2994 RMK A01
KATP 222215Z AUTO 00000KT 9SM 30/24 A2993 RMK A01
KATP 222155Z AUTO 00000KT 7SM 29/24 A2994 RMK A01
KATP 222135Z AUTO 00000KT 10SM 29/24 A2993 RMK A01
KATP 222115Z AUTO 00000KT 10SM 30/24 A2994 RMK A01
KATP 222055Z AUTO 00000KT 10SM 31/24 A2994 RMK A01
KATP 222030Z AUTO 00000KT 10SM 30/24 A2995 RMK A01
KATP 222015Z AUTO 00000KT 10SM 30/24 A2995 RMK A01
KATP 221955Z AUTO 00000KT 10SM 30/24 A2996 RMK A01
KATP 221935Z AUTO 00000KT 10SM 30/24 A2997 RMK A01
KATP 221915Z AUTO 00000KT 10SM 30/24 A2997 RMK A01
KATP 221855Z AUTO VRB04KT 10SM 30/24 A2998 RMK A01
KATP 221835Z AUTO VRB04KT 10SM 30/24 A2998 RMK A01
KATP 221815Z AUTO 11006KT 10SM 30/24 A2999 RMK A01
KATP 221755Z AUTO 09005KT 10SM 30/24 A3000 RMK A01
KATP 221735Z AUTO 12004KT 10SM 30/24 A3001 RMK A01
KATP 221715Z AUTO 12007KT 10SM 30/24 A3002 RMK A01